sensor_id;sensor_type;location;lat;lon;timestamp;P1;durP1;ratioP1;P2;durP2;ratioP2
13973;SDS011;7060;43.770;4.008;2023-01-15T00:02:27;19.73;;;10.20;;
13973;SDS011;7060;43.770;4.008;2023-01-15T00:04:58;15.93;;;10.40;;
13973;SDS011;7060;43.770;4.008;2023-01-15T00:07:31;13.07;;;9.57;;
13973;SDS011;7060;43.770;4.008;2023-01-15T00:10:00;18.40;;;10.90;;
13973;SDS011;7060;43.770;4.008;2023-01-15T00:12:29;16.50;;;10.30;;
13973;SDS011;7060;43.770;4.008;2023-01-15T00:14:58;19.33;;;10.67;;
13973;SDS011;7060;43.770;4.008;2023-01-15T00:17:27;18.13;;;11.43;;
13973;SDS011;7060;43.770;4.008;2023-01-15T00:19:56;16.73;;;11.13;;
13973;SDS011;7060;43.770;4.008;2023-01-15T00:22:24;16.70;;;10.93;;
13973;SDS011;7060;43.770;4.008;2023-01-15T00:24:55;17.03;;;10.23;;
13973;SDS011;7060;43.770;4.008;2023-01-15T00:27:42;18.43;;;11.20;;
13973;SDS011;7060;43.770;4.008;2023-01-15T00:30:16;23.90;;;14.47;;
13973;SDS011;7060;43.770;4.008;2023-01-15T00:32:45;25.13;;;16.33;;
13973;SDS011;7060;43.770;4.008;2023-01-15T00:35:16;20.50;;;14.40;;
13973;SDS011;7060;43.770;4.008;2023-01-15T00:37:50;23.27;;;12.93;;
13973;SDS011;7060;43.770;4.008;2023-01-15T15:30:23;0.97;;;0.10;;
13973;SDS011;7060;43.770;4.008;2023-01-15T15:32:53;0.10;;;0.10;;
13973;SDS011;7060;43.770;4.008;2023-01-15T15:35:24;1.40;;;0.40;;
13973;SDS011;7060;43.770;4.008;2023-01-15T15:37:55;0.67;;;0.10;;
13973;SDS011;7060;43.770;4.008;2023-01-15T15:40:30;0.10;;;0.10;;
13973;SDS011;7060;43.770;4.008;2023-01-15T15:43:09;0.53;;;0.30;;
13973;SDS011;7060;43.770;4.008;2023-01-15T15:45:59;0.47;;;0.20;;
13973;SDS011;7060;43.770;4.008;2023-01-15T15:48:59;2.30;;;0.40;;
13973;SDS011;7060;43.770;4.008;2023-01-15T15:51:31;1.30;;;0.20;;
13973;SDS011;7060;43.770;4.008;2023-01-15T15:54:07;1.97;;;0.50;;
13973;SDS011;7060;43.770;4.008;2023-01-15T15:56:41;0.57;;;0.30;;
13973;SDS011;7060;43.770;4.008;2023-01-15T15:59:27;0.00;;;0.00;;
13973;SDS011;7060;43.770;4.008;2023-01-15T16:02:05;0.40;;;0.20;;
13973;SDS011;7060;43.770;4.008;2023-01-15T16:04:45;0.37;;;0.10;;
13973;SDS011;7060;43.770;4.008;2023-01-15T16:07:20;0.40;;;0.03;;
13973;SDS011;7060;43.770;4.008;2023-01-15T16:09:52;1.57;;;0.17;;
13973;SDS011;7060;43.770;4.008;2023-01-15T16:12:24;0.73;;;0.20;;
13973;SDS011;7060;43.770;4.008;2023-01-15T16:14:56;1.03;;;0.40;;
13973;SDS011;7060;43.770;4.008;2023-01-15T16:17:27;1.43;;;0.10;;
13973;SDS011;7060;43.770;4.008;2023-01-15T16:19:55;0.67;;;0.27;;
13973;SDS011;7060;43.770;4.008;2023-01-15T16:22:25;1.27;;;0.20;;
13973;SDS011;7060;43.770;4.008;2023-01-15T16:24:54;1.90;;;0.10;;
13973;SDS011;7060;43.770;4.008;2023-01-15T16:27:26;0.53;;;0.10;;
13973;SDS011;7060;43.770;4.008;2023-01-15T16:29:58;1.63;;;0.30;;
13973;SDS011;7060;43.770;4.008;2023-01-15T16:32:29;3.17;;;0.70;;
13973;SDS011;7060;43.770;4.008;2023-01-15T16:35:04;0.90;;;0.40;;
13973;SDS011;7060;43.770;4.008;2023-01-15T16:37:35;2.37;;;0.80;;
13973;SDS011;7060;43.770;4.008;2023-01-15T16:40:04;0.47;;;0.20;;
13973;SDS011;7060;43.770;4.008;2023-01-15T16:42:36;2.53;;;0.20;;
13973;SDS011;7060;43.770;4.008;2023-01-15T16:45:17;0.93;;;0.40;;
13973;SDS011;7060;43.770;4.008;2023-01-15T16:48:08;4.23;;;2.47;;
13973;SDS011;7060;43.770;4.008;2023-01-15T16:50:40;3.50;;;1.77;;
13973;SDS011;7060;43.770;4.008;2023-01-15T16:55:58;19.03;;;12.03;;
13973;SDS011;7060;43.770;4.008;2023-01-15T16:58:32;29.93;;;20.20;;
13973;SDS011;7060;43.770;4.008;2023-01-15T17:01:22;22.97;;;15.80;;
13973;SDS011;7060;43.770;4.008;2023-01-15T17:03:55;12.47;;;7.30;;
13973;SDS011;7060;43.770;4.008;2023-01-15T17:06:25;6.53;;;3.60;;
13973;SDS011;7060;43.770;4.008;2023-01-15T17:08:56;3.93;;;2.67;;
13973;SDS011;7060;43.770;4.008;2023-01-15T17:11:27;3.30;;;1.70;;
13973;SDS011;7060;43.770;4.008;2023-01-15T17:14:09;11.93;;;3.50;;
13973;SDS011;7060;43.770;4.008;2023-01-15T17:22:20;4.33;;;1.80;;
13973;SDS011;7060;43.770;4.008;2023-01-15T17:24:52;7.10;;;3.47;;
13973;SDS011;7060;43.770;4.008;2023-01-15T17:27:24;8.63;;;4.00;;
13973;SDS011;7060;43.770;4.008;2023-01-15T17:29:55;7.97;;;5.00;;
13973;SDS011;7060;43.770;4.008;2023-01-15T17:32:26;7.97;;;4.70;;
13973;SDS011;7060;43.770;4.008;2023-01-15T17:35:00;10.07;;;5.30;;
13973;SDS011;7060;43.770;4.008;2023-01-15T17:37:29;44.40;;;15.20;;
13973;SDS011;7060;43.770;4.008;2023-01-15T17:39:58;71.13;;;23.30;;
13973;SDS011;7060;43.770;4.008;2023-01-15T17:42:30;53.43;;;18.40;;
13973;SDS011;7060;43.770;4.008;2023-01-15T17:45:00;56.30;;;19.27;;
13973;SDS011;7060;43.770;4.008;2023-01-15T17:47:30;27.10;;;9.63;;
13973;SDS011;7060;43.770;4.008;2023-01-15T17:50:01;52.03;;;16.23;;
13973;SDS011;7060;43.770;4.008;2023-01-15T17:52:31;100.07;;;38.03;;
13973;SDS011;7060;43.770;4.008;2023-01-15T17:55:01;180.43;;;72.83;;
13973;SDS011;7060;43.770;4.008;2023-01-15T17:57:49;119.97;;;54.10;;
13973;SDS011;7060;43.770;4.008;2023-01-15T18:00:35;67.07;;;32.70;;
13973;SDS011;7060;43.770;4.008;2023-01-15T18:03:23;9.33;;;4.10;;
13973;SDS011;7060;43.770;4.008;2023-01-15T18:06:12;4.87;;;1.50;;
13973;SDS011;7060;43.770;4.008;2023-01-15T18:08:43;4.60;;;2.57;;
13973;SDS011;7060;43.770;4.008;2023-01-15T18:11:15;4.60;;;1.30;;
13973;SDS011;7060;43.770;4.008;2023-01-15T18:13:45;3.60;;;1.43;;
13973;SDS011;7060;43.770;4.008;2023-01-15T18:16:14;3.93;;;1.30;;
13973;SDS011;7060;43.770;4.008;2023-01-15T18:18:43;5.03;;;1.57;;
13973;SDS011;7060;43.770;4.008;2023-01-15T18:21:14;3.40;;;1.30;;
13973;SDS011;7060;43.770;4.008;2023-01-15T18:23:44;2.77;;;1.63;;
13973;SDS011;7060;43.770;4.008;2023-01-15T18:26:13;4.93;;;1.80;;
13973;SDS011;7060;43.770;4.008;2023-01-15T18:28:42;6.50;;;2.37;;
13973;SDS011;7060;43.770;4.008;2023-01-15T18:31:12;11.43;;;4.70;;
13973;SDS011;7060;43.770;4.008;2023-01-15T18:33:46;13.53;;;5.50;;
13973;SDS011;7060;43.770;4.008;2023-01-15T18:36:18;11.93;;;5.90;;
13973;SDS011;7060;43.770;4.008;2023-01-15T18:38:47;10.00;;;5.40;;
13973;SDS011;7060;43.770;4.008;2023-01-15T18:41:19;11.10;;;5.30;;
13973;SDS011;7060;43.770;4.008;2023-01-15T18:44:10;11.43;;;5.63;;
13973;SDS011;7060;43.770;4.008;2023-01-15T18:46:57;10.73;;;4.93;;
13973;SDS011;7060;43.770;4.008;2023-01-15T18:49:30;11.43;;;5.90;;
13973;SDS011;7060;43.770;4.008;2023-01-15T18:52:03;12.47;;;3.43;;
13973;SDS011;7060;43.770;4.008;2023-01-15T18:54:49;4.63;;;2.00;;
13973;SDS011;7060;43.770;4.008;2023-01-15T18:57:19;4.50;;;1.60;;
13973;SDS011;7060;43.770;4.008;2023-01-15T19:00:00;4.20;;;1.47;;
13973;SDS011;7060;43.770;4.008;2023-01-15T19:02:29;4.10;;;1.43;;
13973;SDS011;7060;43.770;4.008;2023-01-15T19:04:59;3.47;;;1.00;;
13973;SDS011;7060;43.770;4.008;2023-01-15T19:07:29;2.70;;;0.80;;
13973;SDS011;7060;43.770;4.008;2023-01-15T19:09:59;3.20;;;0.87;;
13973;SDS011;7060;43.770;4.008;2023-01-15T19:12:28;2.87;;;0.90;;
13973;SDS011;7060;43.770;4.008;2023-01-15T19:14:58;3.17;;;0.57;;
13973;SDS011;7060;43.770;4.008;2023-01-15T19:20:37;1.73;;;0.70;;
13973;SDS011;7060;43.770;4.008;2023-01-15T19:23:08;3.40;;;0.73;;
13973;SDS011;7060;43.770;4.008;2023-01-15T19:25:39;3.23;;;0.60;;
13973;SDS011;7060;43.770;4.008;2023-01-15T19:28:15;3.37;;;0.57;;
13973;SDS011;7060;43.770;4.008;2023-01-15T19:30:45;1.93;;;0.87;;
13973;SDS011;7060;43.770;4.008;2023-01-15T19:33:36;2.93;;;0.80;;
13973;SDS011;7060;43.770;4.008;2023-01-15T19:36:06;1.70;;;0.60;;
13973;SDS011;7060;43.770;4.008;2023-01-15T19:38:36;1.23;;;0.70;;
13973;SDS011;7060;43.770;4.008;2023-01-15T19:41:11;3.80;;;0.93;;
13973;SDS011;7060;43.770;4.008;2023-01-15T19:43:58;4.00;;;0.70;;
13973;SDS011;7060;43.770;4.008;2023-01-15T19:46:44;4.10;;;1.00;;
13973;SDS011;7060;43.770;4.008;2023-01-15T19:49:33;2.63;;;0.70;;
13973;SDS011;7060;43.770;4.008;2023-01-15T19:52:21;3.73;;;1.07;;
13973;SDS011;7060;43.770;4.008;2023-01-15T19:55:05;2.67;;;0.77;;
13973;SDS011;7060;43.770;4.008;2023-01-15T19:57:39;2.20;;;0.63;;
13973;SDS011;7060;43.770;4.008;2023-01-15T20:00:11;2.50;;;0.80;;
13973;SDS011;7060;43.770;4.008;2023-01-15T20:02:43;2.50;;;1.00;;
13973;SDS011;7060;43.770;4.008;2023-01-15T20:05:12;1.87;;;0.70;;
13973;SDS011;7060;43.770;4.008;2023-01-15T20:07:44;4.20;;;1.50;;
13973;SDS011;7060;43.770;4.008;2023-01-15T20:10:22;1.73;;;0.77;;
13973;SDS011;7060;43.770;4.008;2023-01-15T20:12:57;3.80;;;0.70;;
13973;SDS011;7060;43.770;4.008;2023-01-15T20:15:42;2.00;;;0.60;;
13973;SDS011;7060;43.770;4.008;2023-01-15T20:18:12;3.90;;;0.50;;
13973;SDS011;7060;43.770;4.008;2023-01-15T20:20:47;2.20;;;0.63;;
13973;SDS011;7060;43.770;4.008;2023-01-15T20:23:36;1.03;;;0.40;;
13973;SDS011;7060;43.770;4.008;2023-01-15T20:26:32;3.97;;;0.77;;
13973;SDS011;7060;43.770;4.008;2023-01-15T20:29:01;1.10;;;0.40;;
13973;SDS011;7060;43.770;4.008;2023-01-15T20:31:31;1.17;;;0.60;;
13973;SDS011;7060;43.770;4.008;2023-01-15T20:36:38;2.63;;;0.60;;
13973;SDS011;7060;43.770;4.008;2023-01-15T20:39:07;2.47;;;0.73;;
13973;SDS011;7060;43.770;4.008;2023-01-15T20:41:39;3.30;;;0.50;;
13973;SDS011;7060;43.770;4.008;2023-01-15T20:44:29;3.23;;;1.07;;
13973;SDS011;7060;43.770;4.008;2023-01-15T20:47:16;2.67;;;0.80;;
13973;SDS011;7060;43.770;4.008;2023-01-15T20:50:04;3.30;;;0.87;;
13973;SDS011;7060;43.770;4.008;2023-01-15T20:52:37;4.30;;;0.83;;
13973;SDS011;7060;43.770;4.008;2023-01-15T20:55:09;3.70;;;0.50;;
13973;SDS011;7060;43.770;4.008;2023-01-15T20:57:39;2.83;;;0.80;;
13973;SDS011;7060;43.770;4.008;2023-01-15T21:00:09;3.90;;;0.97;;
13973;SDS011;7060;43.770;4.008;2023-01-15T21:02:40;3.57;;;1.20;;
13973;SDS011;7060;43.770;4.008;2023-01-15T21:05:10;2.03;;;0.83;;
13973;SDS011;7060;43.770;4.008;2023-01-15T21:07:48;2.43;;;0.77;;
13973;SDS011;7060;43.770;4.008;2023-01-15T21:10:17;3.43;;;1.33;;
13973;SDS011;7060;43.770;4.008;2023-01-15T21:12:52;3.03;;;1.00;;
13973;SDS011;7060;43.770;4.008;2023-01-15T21:15:20;4.60;;;1.57;;
13973;SDS011;7060;43.770;4.008;2023-01-15T21:17:54;6.03;;;1.27;;
13973;SDS011;7060;43.770;4.008;2023-01-15T21:20:22;10.03;;;3.53;;
13973;SDS011;7060;43.770;4.008;2023-01-15T21:22:51;7.03;;;1.83;;
13973;SDS011;7060;43.770;4.008;2023-01-15T21:25:21;3.80;;;1.73;;
13973;SDS011;7060;43.770;4.008;2023-01-15T21:28:02;4.13;;;1.87;;
13973;SDS011;7060;43.770;4.008;2023-01-15T21:30:32;3.87;;;1.43;;
13973;SDS011;7060;43.770;4.008;2023-01-15T21:33:09;4.83;;;2.00;;
13973;SDS011;7060;43.770;4.008;2023-01-15T21:35:39;5.63;;;2.17;;
13973;SDS011;7060;43.770;4.008;2023-01-15T21:38:09;6.30;;;2.00;;
13973;SDS011;7060;43.770;4.008;2023-01-15T21:40:38;2.60;;;1.20;;
13973;SDS011;7060;43.770;4.008;2023-01-15T21:43:09;3.33;;;1.40;;
13973;SDS011;7060;43.770;4.008;2023-01-15T21:46:00;8.83;;;5.97;;
13973;SDS011;7060;43.770;4.008;2023-01-15T21:51:02;3.97;;;1.40;;
13973;SDS011;7060;43.770;4.008;2023-01-15T21:53:33;1.53;;;0.70;;
13973;SDS011;7060;43.770;4.008;2023-01-15T21:56:07;5.53;;;1.47;;
13973;SDS011;7060;43.770;4.008;2023-01-15T21:58:38;2.67;;;1.13;;
13973;SDS011;7060;43.770;4.008;2023-01-15T22:01:10;2.93;;;1.23;;
13973;SDS011;7060;43.770;4.008;2023-01-15T22:03:39;3.53;;;1.43;;
13973;SDS011;7060;43.770;4.008;2023-01-15T22:06:08;2.47;;;0.80;;
13973;SDS011;7060;43.770;4.008;2023-01-15T22:08:37;2.43;;;1.00;;
13973;SDS011;7060;43.770;4.008;2023-01-15T22:11:08;1.53;;;0.50;;
13973;SDS011;7060;43.770;4.008;2023-01-15T22:16:12;1.13;;;0.50;;
13973;SDS011;7060;43.770;4.008;2023-01-15T22:18:41;2.57;;;0.43;;
13973;SDS011;7060;43.770;4.008;2023-01-15T22:21:13;1.87;;;0.97;;
13973;SDS011;7060;43.770;4.008;2023-01-15T22:23:42;4.63;;;0.80;;
13973;SDS011;7060;43.770;4.008;2023-01-15T22:26:16;3.47;;;0.80;;
13973;SDS011;7060;43.770;4.008;2023-01-15T22:28:46;3.47;;;1.10;;
13973;SDS011;7060;43.770;4.008;2023-01-15T22:31:18;1.07;;;0.40;;
13973;SDS011;7060;43.770;4.008;2023-01-15T22:33:47;3.73;;;0.90;;
13973;SDS011;7060;43.770;4.008;2023-01-15T22:36:18;1.97;;;0.57;;
13973;SDS011;7060;43.770;4.008;2023-01-15T22:38:49;6.63;;;2.07;;
13973;SDS011;7060;43.770;4.008;2023-01-15T22:41:20;4.03;;;1.63;;
13973;SDS011;7060;43.770;4.008;2023-01-15T22:44:05;5.10;;;1.10;;
13973;SDS011;7060;43.770;4.008;2023-01-15T22:46:36;5.60;;;0.73;;
13973;SDS011;7060;43.770;4.008;2023-01-15T22:49:09;2.60;;;0.67;;
13973;SDS011;7060;43.770;4.008;2023-01-15T22:51:38;4.90;;;0.70;;
13973;SDS011;7060;43.770;4.008;2023-01-15T22:54:07;2.57;;;0.97;;
13973;SDS011;7060;43.770;4.008;2023-01-15T22:56:38;2.87;;;0.70;;
13973;SDS011;7060;43.770;4.008;2023-01-15T22:59:11;3.57;;;0.53;;
13973;SDS011;7060;43.770;4.008;2023-01-15T23:01:42;5.63;;;0.80;;
13973;SDS011;7060;43.770;4.008;2023-01-15T23:04:11;2.03;;;0.50;;
13973;SDS011;7060;43.770;4.008;2023-01-15T23:06:41;4.40;;;0.53;;
13973;SDS011;7060;43.770;4.008;2023-01-15T23:09:13;3.10;;;0.80;;
13973;SDS011;7060;43.770;4.008;2023-01-15T23:11:42;1.40;;;0.60;;
13973;SDS011;7060;43.770;4.008;2023-01-15T23:14:15;3.27;;;0.60;;
13973;SDS011;7060;43.770;4.008;2023-01-15T23:16:46;2.37;;;0.50;;
13973;SDS011;7060;43.770;4.008;2023-01-15T23:19:14;4.80;;;0.67;;
13973;SDS011;7060;43.770;4.008;2023-01-15T23:21:44;1.83;;;0.60;;
13973;SDS011;7060;43.770;4.008;2023-01-15T23:24:13;1.90;;;0.50;;
13973;SDS011;7060;43.770;4.008;2023-01-15T23:26:43;4.37;;;0.67;;
13973;SDS011;7060;43.770;4.008;2023-01-15T23:29:11;4.67;;;0.87;;
13973;SDS011;7060;43.770;4.008;2023-01-15T23:31:43;2.57;;;0.80;;
13973;SDS011;7060;43.770;4.008;2023-01-15T23:34:13;3.67;;;0.70;;
13973;SDS011;7060;43.770;4.008;2023-01-15T23:36:42;2.73;;;0.73;;
13973;SDS011;7060;43.770;4.008;2023-01-15T23:39:11;4.07;;;2.10;;
13973;SDS011;7060;43.770;4.008;2023-01-15T23:41:40;3.70;;;1.97;;
13973;SDS011;7060;43.770;4.008;2023-01-15T23:44:27;4.83;;;1.67;;
13973;SDS011;7060;43.770;4.008;2023-01-15T23:47:15;2.87;;;1.10;;
13973;SDS011;7060;43.770;4.008;2023-01-15T23:52:17;4.80;;;1.10;;
13973;SDS011;7060;43.770;4.008;2023-01-15T23:54:56;2.87;;;1.00;;
13973;SDS011;7060;43.770;4.008;2023-01-15T23:57:27;3.63;;;0.80;;
